Time;durP1;ratioP1;P1;durP2;ratioP2;P2;SDS_P1;SDS_P2;PMS_P1;PMS_P2;Temp;Humidity;BMP_temperature;BMP_pressure;BME280_temperature;BME280_humidity;BME280_pressure;Samples;Min_cycle;Max_cycle;Signal;HPM_P1;HPM_P2
2021/01/13 00:01:04;;;;;;;46.90;35.80;;;;;;;;;;14838043;29;20235;-79
2021/01/13 00:08:30;;;;;;;47.10;37.63;;;;;;;;;;14838159;29;20228;-79
2021/01/13 00:15:58;;;;;;;47.73;37.13;;;;;;;;;;14838045;29;20210;-78
2021/01/13 00:23:25;;;;;;;50.57;39.40;;;;;;;;;;14854533;29;20219;-83
2021/01/13 00:30:52;;;;;;;48.63;37.77;;;;;;;;;;14853204;29;20756;-79
2021/01/13 00:38:20;;;;;;;54.57;38.97;;;;;;;;;;14837211;29;20292;-79
2021/01/13 00:45:46;;;;;;;50.57;38.93;;;;;;;;;;14838330;29;20230;-79
2021/01/13 00:53:13;;;;;;;51.20;39.13;;;;;;;;;;14837649;29;20196;-79
2021/01/13 01:00:41;;;;;;;49.53;38.90;;;;;;;;;;14838734;29;20240;-78
2021/01/13 01:08:09;;;;;;;48.73;38.00;;;;;;;;;;14837192;29;20188;-78
2021/01/13 01:15:36;;;;;;;46.97;35.67;;;;;;;;;;14849368;29;20538;-81
2021/01/13 01:23:04;;;;;;;41.80;33.10;;;;;;;;;;14844723;29;20244;-80
2021/01/13 01:30:32;;;;;;;42.30;32.17;;;;;;;;;;14868866;29;20283;-80
2021/01/13 01:37:59;;;;;;;38.27;30.13;;;;;;;;;;14849100;29;20562;-82
2021/01/13 01:45:28;;;;;;;36.47;28.40;;;;;;;;;;14845291;29;20566;-80
2021/01/13 01:53:04;;;;;;;29.07;23.87;;;;;;;;;;14846505;29;20183;-80
2021/01/13 02:00:33;;;;;;;31.57;25.93;;;;;;;;;;14845651;29;20235;-81
2021/01/13 02:08:02;;;;;;;34.87;27.27;;;;;;;;;;14859886;29;20184;-86
2021/01/13 02:15:29;;;;;;;33.03;27.93;;;;;;;;;;14844312;29;20220;-86
2021/01/13 02:23:02;;;;;;;33.67;27.63;;;;;;;;;;14860081;29;20666;-87
2021/01/13 02:30:34;;;;;;;34.53;28.63;;;3.30;79.70;;;;;;14845050;29;20188;-81
2021/01/13 02:38:05;;;;;;;36.47;29.17;;;;;;;;;;14858678;29;20185;-82
2021/01/13 02:45:37;;;;;;;35.53;29.73;;;3.90;80.10;;;;;;14844669;29;20208;-84
2021/01/13 02:53:29;;;;;;;35.47;29.80;;;;;;;;;;14857877;29;20724;-83
2021/01/13 03:00:57;;;;;;;32.20;27.40;;;;;;;;;;14843969;29;20236;-84
2021/01/13 03:08:41;;;;;;;32.93;26.40;;;3.80;80.20;;;;;;14856742;29;20232;-81
2021/01/13 03:16:09;;;;;;;29.93;25.23;;;;;;;;;;14839182;29;20366;-82
2021/01/13 03:23:39;;;;;;;26.83;22.53;;;;;;;;;;14826375;29;20292;-80
2021/01/13 03:31:07;;;;;;;19.40;17.10;;;4.30;80.20;;;;;;14856076;29;20233;-80
2021/01/13 03:38:52;;;;;;;18.73;16.47;;;3.70;79.80;;;;;;14838436;29;20255;-81
2021/01/13 03:46:19;;;;;;;21.20;18.73;;;;;;;;;;14838580;29;20302;-78
2021/01/13 03:53:51;;;;;;;19.13;15.70;;;;;;;;;;14838538;29;20219;-78
2021/01/13 04:01:51;;;;;;;14.73;12.27;;;5.60;81.20;;;;;;14822284;29;20563;-80
2021/01/13 04:09:20;;;;;;;13.33;11.93;;;3.50;79.60;;;;;;14837190;29;20232;-76
2021/01/13 04:16:47;;;;;;;12.03;10.07;;;;;;;;;;14839411;29;20204;-79
2021/01/13 04:24:13;;;;;;;13.73;11.90;;;;;;;;;;14838572;29;20228;-78
2021/01/13 04:31:44;;;;;;;11.97;10.43;;;3.20;79.10;;;;;;14836831;29;20643;-80
2021/01/13 04:39:12;;;;;;;13.87;12.27;;;4.10;79.40;;;;;;14841151;29;20228;-81
2021/01/13 04:46:40;;;;;;;14.67;11.93;;;;;;;;;;14840911;29;20630;-78
2021/01/13 04:54:11;;;;;;;13.30;11.33;;;;;;;;;;14855275;29;20188;-82
2021/01/13 05:02:08;;;;;;;12.17;10.70;;;3.70;78.80;;;;;;14846782;29;20232;-81
2021/01/13 05:09:51;;;;;;;11.63;9.13;;;3.20;78.20;;;;;;14822261;29;20357;-84
2021/01/13 05:17:22;;;;;;;7.63;6.47;;;;;;;;;;14846626;29;20207;-84
2021/01/13 05:24:53;;;;;;;9.40;7.47;;;5.90;78.80;;;;;;14848528;29;20208;-84
2021/01/13 05:32:20;;;;;;;10.27;7.63;;;;;;;;;;14846115;29;20233;-78
2021/01/13 05:39:50;;;;;;;7.43;6.27;;;;;;;;;;14842634;29;20231;-79
2021/01/13 05:47:47;;;;;;;9.47;6.67;;;;;;;;;;14846001;29;20193;-78
2021/01/13 05:55:17;;;;;;;6.40;5.00;;;3.60;76.80;;;;;;14845626;29;20203;-78
2021/01/13 06:02:48;;;;;;;8.47;5.83;;;5.90;77.80;;;;;;14842257;29;20235;-78
2021/01/13 06:10:18;;;;;;;6.03;4.50;;;3.40;76.00;;;;;;14841118;29;20733;-78
2021/01/13 06:17:48;;;;;;;6.90;4.13;;;;;;;;;;14828587;29;20192;-76
2021/01/13 06:25:20;;;;;;;5.70;4.23;;;;;;;;;;14826765;29;20307;-80
2021/01/13 06:32:54;;;;;;;5.97;4.60;;;5.70;76.60;;;;;;14855952;29;20473;-76
2021/01/13 06:40:22;;;;;;;5.63;3.90;;;;;;;;;;14839782;29;20235;-80
2021/01/13 06:47:58;;;;;;;5.93;3.80;;;;;;;;;;14842205;29;20690;-78
2021/01/13 06:55:32;;;;;;;4.97;3.70;;;;;;;;;;14839424;29;20207;-77
2021/01/13 07:03:01;;;;;;;4.47;3.00;;;;;;;;;;14837935;29;20240;-81
2021/01/13 07:10:31;;;;;;;4.03;2.33;;;;;;;;;;14836075;29;20567;-76
2021/01/13 07:17:57;;;;;;;4.60;2.50;;;;;;;;;;14838944;29;20624;-78
2021/01/13 07:25:25;;;;;;;4.87;2.53;;;;;;;;;;14835330;29;20230;-77
2021/01/13 07:32:59;;;;;;;4.30;2.50;;;;;;;;;;14818293;29;20527;-77
2021/01/13 07:40:43;;;;;;;3.73;1.77;;;;;;;;;;14832768;29;20563;-76
2021/01/13 07:48:24;;;;;;;8.20;2.07;;;;;;;;;;14835891;29;20197;-81
2021/01/13 07:56:11;;;;;;;3.90;1.77;;;;;;;;;;14819189;29;20226;-82
2021/01/13 08:04:29;;;;;;;3.80;1.60;;;4.60;69.40;;;;;;14853812;29;20648;-84
2021/01/13 08:12:58;;;;;;;3.50;1.67;;;6.00;69.80;;;;;;14812553;29;20261;-84
2021/01/13 08:20:42;;;;;;;3.10;1.40;;;;;;;;;;14793309;29;20236;-87
2021/01/13 08:28:13;;;;;;;4.80;1.90;;;;;;;;;;14845852;29;20285;-85
2021/01/13 08:35:45;;;;;;;4.00;2.20;;;;;;;;;;14840353;29;20216;-82
2021/01/13 08:43:19;;;;;;;3.03;1.40;;;;;;;;;;14852981;29;20589;-82
2021/01/13 08:51:06;;;;;;;4.50;2.10;;;;;;;;;;14896216;29;20200;-85
2021/01/13 08:58:40;;;;;;;3.17;1.53;;;;;;;;;;14901916;29;20725;-84
2021/01/13 09:06:27;;;;;;;3.53;1.40;;;;;;;;;;14900194;29;20235;-80
2021/01/13 09:14:27;;;;;;;7.13;2.17;;;;;;;;;;14899038;29;20219;-86
2021/01/13 09:22:00;;;;;;;3.03;1.53;;;;;;;;;;14901253;29;20799;-82
2021/01/13 09:29:47;;;;;;;7.10;1.97;;;;;;;;;;14896807;29;20188;-81
2021/01/13 09:37:17;;;;;;;4.60;1.37;;;;;;;;;;14857973;29;20231;-82
2021/01/13 09:45:04;;;;;;;2.53;1.00;;;4.60;66.20;;;;;;14797404;29;20243;-82
2021/01/13 09:52:39;;;;;;;4.93;1.60;;;;;;;;;;14789938;29;20217;-83
2021/01/13 10:00:10;;;;;;;5.07;1.63;;;;;;;;;;14790547;29;20717;-85
2021/01/13 10:07:40;;;;;;;7.03;1.90;;;;;;;;;;14805249;29;20235;-81
2021/01/13 10:15:10;;;;;;;5.13;1.73;;;;;;;;;;14817827;29;20188;-82
2021/01/13 10:22:39;;;;;;;6.60;2.00;;;6.40;66.80;;;;;;14845126;29;20625;-81
2021/01/13 10:30:12;;;;;;;4.80;2.10;;;;;;;;;;14841019;29;20251;-86
2021/01/13 10:37:42;;;;;;;6.73;2.07;;;;;;;;;;14846762;29;20701;-82
2021/01/13 10:45:15;;;;;;;3.47;1.30;;;;;;;;;;14844359;29;20240;-83
2021/01/13 10:52:47;;;;;;;4.57;1.63;;;;;;;;;;14850039;29;20220;-85
2021/01/13 11:00:17;;;;;;;7.13;1.63;;;;;;;;;;14839408;29;20223;-84
2021/01/13 11:07:49;;;;;;;4.83;1.53;;;;;;;;;;14869008;29;20323;-81
2021/01/13 11:15:19;;;;;;;4.70;1.40;;;;;;;;;;14849558;29;20183;-82
2021/01/13 11:22:51;;;;;;;8.57;2.23;;;;;;;;;;14838725;29;20356;-80
2021/01/13 11:30:24;;;;;;;6.97;1.77;;;;;;;;;;14839229;29;20196;-80
2021/01/13 11:37:54;;;;;;;4.47;1.43;;;;;;;;;;14839128;29;20396;-80
2021/01/13 11:45:32;;;;;;;5.00;1.23;;;6.40;64.00;;;;;;14831774;29;20322;-82
2021/01/13 11:53:04;;;;;;;9.67;2.80;;;;;;;;;;14834282;29;20220;-82
2021/01/13 12:00:35;;;;;;;8.90;1.90;;;;;;;;;;14819416;29;20545;-82
2021/01/13 12:08:04;;;;;;;8.20;1.40;;;;;;;;;;14837522;29;20219;-80
2021/01/13 12:15:32;;;;;;;5.80;1.20;;;;;;;;;;14820115;29;20224;-81
2021/01/13 12:22:59;;;;;;;5.43;1.43;;;;;;;;;;14833890;29;20224;-81
2021/01/13 12:30:27;;;;;;;11.03;1.90;;;;;;;;;;14834933;29;20184;-79
2021/01/13 12:37:55;;;;;;;8.30;1.97;;;;;;;;;;14833637;29;20228;-80
2021/01/13 12:45:25;;;;;;;5.13;1.23;;;;;;;;;;14834988;29;20228;-80
2021/01/13 12:52:53;;;;;;;8.70;1.60;;;;;;;;;;14820318;29;20314;-83
2021/01/13 13:00:21;;;;;;;5.90;1.00;;;;;;;;;;14818664;29;20244;-85
2021/01/13 13:07:54;;;;;;;5.23;1.40;;;;;;;;;;14846928;29;20327;-80
2021/01/13 13:15:23;;;;;;;5.23;1.20;;;;;;;;;;14848739;29;20199;-81
2021/01/13 13:22:55;;;;;;;5.03;1.20;;;;;;;;;;14844165;29;20204;-85
2021/01/13 13:30:23;;;;;;;4.83;1.60;;;;;;;;;;14848428;29;20220;-79
2021/01/13 13:37:54;;;;;;;4.47;1.30;;;;;;;;;;14845200;29;20220;-83
2021/01/13 13:45:27;;;;;;;3.47;1.23;;;;;;;;;;14844626;29;20267;-81
2021/01/13 13:52:56;;;;;;;5.30;1.23;;;;;;;;;;14850010;29;20211;-82
2021/01/13 14:00:25;;;;;;;16.03;4.93;;;;;;;;;;14886376;29;20725;-83
2021/01/13 14:07:52;;;;;;;5.27;1.50;;;;;;;;;;14883443;29;20226;-80
2021/01/13 14:15:21;;;;;;;5.37;1.10;;;;;;;;;;14865270;29;20208;-82
2021/01/13 14:22:50;;;;;;;3.67;1.20;;;;;;;;;;14906402;29;20226;-81
2021/01/13 14:30:19;;;;;;;3.70;1.30;;;;;;;;;;14899016;29;20235;-84
2021/01/13 14:37:50;;;;;;;2.93;1.10;;;;;;;;;;14901694;29;20235;-81
2021/01/13 14:45:18;;;;;;;3.50;1.17;;;;;;;;;;14886572;29;20606;-81
2021/01/13 14:52:51;;;;;;;2.80;1.13;;;;;;;;;;14881578;29;20198;-77
2021/01/13 15:00:19;;;;;;;3.00;1.27;;;;;;;;;;14857989;29;20246;-84
2021/01/13 15:07:52;;;;;;;4.37;1.43;;;;;;;;;;14867886;29;20250;-82
2021/01/13 15:15:20;;;;;;;4.70;1.27;;;;;;;;;;14880315;29;20194;-80
2021/01/13 15:22:48;;;;;;;5.27;1.77;;;;;;;;;;14858453;29;20235;-84
2021/01/13 15:30:17;;;;;;;3.50;1.30;;;;;;;;;;14899984;29;20199;-85
2021/01/13 15:37:45;;;;;;;6.83;1.93;;;;;;;;;;14897213;29;20226;-82
2021/01/13 15:45:15;;;;;;;5.60;1.70;;;;;;;;;;14865571;29;20225;-81
2021/01/13 15:53:02;;;;;;;4.73;1.67;;;;;;;;;;14859850;29;20223;-76
2021/01/13 16:00:30;;;;;;;5.70;2.20;;;;;;;;;;14874052;29;20243;-79
2021/01/13 16:08:00;;;;;;;9.83;1.97;;;;;;;;;;14894305;29;20245;-81
2021/01/13 16:15:29;;;;;;;6.00;1.97;;;;;;;;;;14893759;29;20285;-78
2021/01/13 16:23:02;;;;;;;5.40;2.17;;;5.70;60.80;;;;;;14893373;29;20203;-79
2021/01/13 16:30:32;;;;;;;4.00;1.97;;;;;;;;;;14893417;29;20192;-77
2021/01/13 16:38:00;;;;;;;5.53;2.20;;;;;;;;;;14877232;29;20659;-78
2021/01/13 16:45:28;;;;;;;7.17;2.50;;;;;;;;;;14893900;29;20211;-79
2021/01/13 16:53:00;;;;;;;4.57;2.10;;;;;;;;;;14891999;29;20194;-80
2021/01/13 17:00:29;;;;;;;4.03;2.47;;;;;;;;;;14904873;29;20231;-80
2021/01/13 17:07:58;;;;;;;5.33;2.10;;;;;;;;;;14873821;29;20619;-79
2021/01/13 17:15:30;;;;;;;6.07;2.43;;;;;;;;;;14887113;29;20603;-79
2021/01/13 17:22:58;;;;;;;4.67;2.53;;;;;;;;;;14870306;29;20243;-77
2021/01/13 17:30:30;;;;;;;6.87;2.50;;;;;;;;;;14903280;29;20234;-81
2021/01/13 17:38:00;;;;;;;4.50;2.17;;;;;;;;;;14908368;29;20279;-81
2021/01/13 17:45:32;;;;;;;4.43;2.70;;;;;;;;;;14844476;29;20231;-86
2021/01/13 17:53:02;;;;;;;5.07;2.37;;;;;;;;;;14849771;29;20188;-85
2021/01/13 18:00:32;;;;;;;7.00;2.50;;;;;;;;;;14838956;29;20311;-79
2021/01/13 18:08:02;;;;;;;5.40;2.80;;;;;;;;;;14846996;29;20228;-81
2021/01/13 18:15:31;;;;;;;5.30;2.97;;;;;;;;;;14832277;29;20208;-82
2021/01/13 18:23:00;;;;;;;4.53;2.57;;;;;;;;;;14761983;29;20236;-82
2021/01/13 18:30:27;;;;;;;4.53;2.77;;;;;;;;;;14788520;29;20287;-81
2021/01/13 18:37:56;;;;;;;4.43;2.80;;;;;;;;;;14826818;29;20216;-76
2021/01/13 18:45:23;;;;;;;6.20;2.77;;;;;;;;;;14838449;29;20208;-79
2021/01/13 18:52:50;;;;;;;5.87;2.70;;;;;;;;;;14844677;29;20565;-84
2021/01/13 19:00:20;;;;;;;5.63;2.90;;;5.50;60.60;;;;;;14868299;29;20236;-82
2021/01/13 19:07:48;;;;;;;4.60;2.80;;;;;;;;;;14833994;29;20267;-81
2021/01/13 19:15:15;;;;;;;3.93;2.47;;;;;;;;;;14842456;29;20279;-82
2021/01/13 19:22:46;;;;;;;7.90;2.53;;;;;;;;;;14847144;29;20224;-84
2021/01/13 19:30:14;;;;;;;4.20;2.27;;;;;;;;;;14843950;29;20639;-85
2021/01/13 19:37:47;;;;;;;6.67;2.60;;;7.00;60.10;;;;;;14842969;29;20636;-91
2021/01/13 19:45:15;;;;;;;4.50;2.10;;;;;;;;;;14843766;29;20299;-85
2021/01/13 19:52:42;;;;;;;5.10;2.30;;;;;;;;;;14842390;29;20210;-85
2021/01/13 20:00:13;;;;;;;4.17;2.30;;;;;;;;;;14843735;29;20320;-81
2021/01/13 20:07:41;;;;;;;4.40;2.60;;;;;;;;;;14840118;29;20228;-80
2021/01/13 20:15:15;;;;;;;4.50;2.10;;;;;;;;;;14840169;29;20687;-84
2021/01/13 20:22:43;;;;;;;7.57;2.60;;;;;;;;;;14838832;29;20340;-83
2021/01/13 20:30:11;;;;;;;3.90;1.97;;;;;;;;;;14845610;29;20226;-80
2021/01/13 20:37:39;;;;;;;5.60;2.90;;;;;;;;;;14823022;29;20220;-82
2021/01/13 20:45:09;;;;;;;6.17;3.50;;;;;;;;;;14837862;29;20575;-80
2021/01/13 20:52:37;;;;;;;5.90;3.40;;;;;;;;;;14838604;29;20204;-82
2021/01/13 21:00:07;;;;;;;5.30;3.17;;;;;;;;;;14820401;29;20236;-82
2021/01/13 21:07:36;;;;;;;7.77;3.97;;;;;;;;;;14824756;29;20637;-82
2021/01/13 21:15:21;;;;;;;6.83;4.57;;;;;;;;;;14839354;29;20671;-81
2021/01/13 21:22:50;;;;;;;7.53;4.17;;;;;;;;;;14835693;29;20213;-79
2021/01/13 21:30:21;;;;;;;6.30;4.30;;;;;;;;;;14839742;29;20196;-78
2021/01/13 21:37:48;;;;;;;6.97;4.30;;;;;;;;;;14827341;29;20257;-78
2021/01/13 21:45:15;;;;;;;6.63;3.60;;;6.60;74.20;;;;;;14846314;29;20238;-80
2021/01/13 21:52:43;;;;;;;5.70;3.40;;;;;;;;;;14842525;29;20208;-77
2021/01/13 22:00:11;;;;;;;4.03;2.57;;;;;;;;;;14845489;29;20236;-84
2021/01/13 22:07:39;;;;;;;6.00;3.03;;;;;;;;;;14848493;29;20243;-80
2021/01/13 22:15:12;;;;;;;4.93;2.67;;;6.10;66.10;;;;;;14848482;29;20706;-84
2021/01/13 22:22:40;;;;;;;6.67;2.73;;;;;;;;;;14831018;29;20212;-79
2021/01/13 22:30:10;;;;;;;3.60;1.83;;;;;;;;;;14843900;29;20208;-85
2021/01/13 22:37:39;;;;;;;4.30;1.70;;;;;;;;;;14826093;29;20227;-87
2021/01/13 22:45:16;;;;;;;3.67;1.50;;;;;;;;;;14844828;29;20212;-86
2021/01/13 22:52:45;;;;;;;3.40;1.63;;;;;;;;;;14843992;29;20256;-83
2021/01/13 23:00:15;;;;;;;5.57;2.70;;;;;;;;;;14843647;29;20314;-84
2021/01/13 23:07:47;;;;;;;5.43;2.80;;;;;;;;;;14812431;29;20247;-83
2021/01/13 23:15:15;;;;;;;4.00;2.97;;;;;;;;;;14842969;29;20212;-84
2021/01/13 23:22:45;;;;;;;5.97;3.17;;;;;;;;;;14846645;29;20212;-82
2021/01/13 23:30:20;;;;;;;5.10;3.60;;;5.00;65.60;;;;;;14829692;29;20279;-78
2021/01/13 23:37:47;;;;;;;6.10;4.70;;;;;;;;;;14841349;29;20255;-83
2021/01/13 23:45:15;;;;;;;7.83;4.93;;;;;;;;;;14850609;29;20240;-90
2021/01/13 23:52:43;;;;;;;9.10;6.20;;;;;;;;;;14863580;29;20186;-83
